sensor_id;sensor_type;location;lat;lon;timestamp;P1;durP1;ratioP1;P2;durP2;ratioP2
4414;SDS011;2220;42.670;23.398;2023-08-24T00:00:05;12.98;;;8.88;;
4414;SDS011;2220;42.670;23.398;2023-08-24T00:02:31;10.82;;;9.27;;
4414;SDS011;2220;42.670;23.398;2023-08-24T00:04:57;13.68;;;10.07;;
4414;SDS011;2220;42.670;23.398;2023-08-24T00:07:22;11.90;;;9.35;;
4414;SDS011;2220;42.670;23.398;2023-08-24T00:09:48;11.52;;;8.82;;
4414;SDS011;2220;42.670;23.398;2023-08-24T00:12:13;14.40;;;9.27;;
4414;SDS011;2220;42.670;23.398;2023-08-24T00:14:38;17.00;;;9.55;;
4414;SDS011;2220;42.670;23.398;2023-08-24T00:17:04;10.20;;;8.52;;
4414;SDS011;2220;42.670;23.398;2023-08-24T00:19:29;9.52;;;8.52;;
4414;SDS011;2220;42.670;23.398;2023-08-24T00:21:55;11.00;;;8.60;;
4414;SDS011;2220;42.670;23.398;2023-08-24T00:24:20;11.43;;;9.57;;
4414;SDS011;2220;42.670;23.398;2023-08-24T00:26:46;10.23;;;9.15;;
4414;SDS011;2220;42.670;23.398;2023-08-24T00:29:11;11.25;;;9.50;;
4414;SDS011;2220;42.670;23.398;2023-08-24T00:31:37;15.30;;;8.52;;
4414;SDS011;2220;42.670;23.398;2023-08-24T00:34:02;13.48;;;9.63;;
4414;SDS011;2220;42.670;23.398;2023-08-24T00:36:28;17.15;;;9.10;;
4414;SDS011;2220;42.670;23.398;2023-08-24T00:38:53;9.73;;;8.73;;
4414;SDS011;2220;42.670;23.398;2023-08-24T00:41:19;12.32;;;9.27;;
4414;SDS011;2220;42.670;23.398;2023-08-24T00:43:46;10.52;;;9.35;;
4414;SDS011;2220;42.670;23.398;2023-08-24T00:46:11;11.18;;;9.70;;
4414;SDS011;2220;42.670;23.398;2023-08-24T00:48:38;14.80;;;10.50;;
4414;SDS011;2220;42.670;23.398;2023-08-24T00:51:03;11.15;;;9.65;;
4414;SDS011;2220;42.670;23.398;2023-08-24T00:53:30;15.15;;;9.68;;
4414;SDS011;2220;42.670;23.398;2023-08-24T00:55:56;16.63;;;10.20;;
4414;SDS011;2220;42.670;23.398;2023-08-24T00:58:22;18.83;;;10.68;;
4414;SDS011;2220;42.670;23.398;2023-08-24T01:00:49;19.35;;;10.82;;
4414;SDS011;2220;42.670;23.398;2023-08-24T01:03:17;12.23;;;10.90;;
4414;SDS011;2220;42.670;23.398;2023-08-24T01:05:43;19.23;;;11.75;;
4414;SDS011;2220;42.670;23.398;2023-08-24T01:08:10;13.45;;;10.98;;
4414;SDS011;2220;42.670;23.398;2023-08-24T01:10:38;12.10;;;10.88;;
4414;SDS011;2220;42.670;23.398;2023-08-24T01:13:12;14.75;;;11.57;;
4414;SDS011;2220;42.670;23.398;2023-08-24T01:15:47;22.30;;;11.57;;
4414;SDS011;2220;42.670;23.398;2023-08-24T01:18:20;17.90;;;12.18;;
4414;SDS011;2220;42.670;23.398;2023-08-24T01:20:48;17.25;;;11.68;;
4414;SDS011;2220;42.670;23.398;2023-08-24T01:28:36;20.17;;;11.90;;
4414;SDS011;2220;42.670;23.398;2023-08-24T01:31:03;15.27;;;11.60;;
4414;SDS011;2220;42.670;23.398;2023-08-24T01:33:30;20.42;;;11.15;;
4414;SDS011;2220;42.670;23.398;2023-08-24T01:35:56;15.38;;;11.13;;
4414;SDS011;2220;42.670;23.398;2023-08-24T01:38:21;12.93;;;10.75;;
4414;SDS011;2220;42.670;23.398;2023-08-24T01:40:55;15.43;;;10.60;;
4414;SDS011;2220;42.670;23.398;2023-08-24T01:43:45;14.93;;;11.20;;
4414;SDS011;2220;42.670;23.398;2023-08-24T01:46:14;12.68;;;10.55;;
4414;SDS011;2220;42.670;23.398;2023-08-24T01:48:42;15.48;;;11.27;;
4414;SDS011;2220;42.670;23.398;2023-08-24T01:51:09;15.55;;;11.88;;
4414;SDS011;2220;42.670;23.398;2023-08-24T01:53:35;13.65;;;12.07;;
4414;SDS011;2220;42.670;23.398;2023-08-24T01:56:07;15.73;;;12.60;;
4414;SDS011;2220;42.670;23.398;2023-08-24T01:58:34;15.80;;;11.65;;
4414;SDS011;2220;42.670;23.398;2023-08-24T02:00:59;15.68;;;11.77;;
4414;SDS011;2220;42.670;23.398;2023-08-24T02:03:25;15.50;;;11.75;;
4414;SDS011;2220;42.670;23.398;2023-08-24T02:05:50;15.73;;;12.00;;
4414;SDS011;2220;42.670;23.398;2023-08-24T02:08:15;19.98;;;12.05;;
4414;SDS011;2220;42.670;23.398;2023-08-24T02:10:41;17.75;;;11.90;;
4414;SDS011;2220;42.670;23.398;2023-08-24T02:13:06;17.38;;;13.07;;
4414;SDS011;2220;42.670;23.398;2023-08-24T02:15:32;17.15;;;11.63;;
4414;SDS011;2220;42.670;23.398;2023-08-24T02:17:57;18.02;;;11.57;;
4414;SDS011;2220;42.670;23.398;2023-08-24T02:20:22;14.88;;;11.00;;
4414;SDS011;2220;42.670;23.398;2023-08-24T02:22:48;12.77;;;11.48;;
4414;SDS011;2220;42.670;23.398;2023-08-24T02:25:13;16.58;;;11.48;;
4414;SDS011;2220;42.670;23.398;2023-08-24T02:27:39;16.00;;;11.25;;
4414;SDS011;2220;42.670;23.398;2023-08-24T02:30:04;11.85;;;10.45;;
4414;SDS011;2220;42.670;23.398;2023-08-24T02:32:30;11.82;;;10.63;;
4414;SDS011;2220;42.670;23.398;2023-08-24T02:34:56;15.82;;;11.98;;
4414;SDS011;2220;42.670;23.398;2023-08-24T02:37:22;13.10;;;11.50;;
4414;SDS011;2220;42.670;23.398;2023-08-24T02:39:47;13.13;;;10.45;;
4414;SDS011;2220;42.670;23.398;2023-08-24T02:42:13;14.00;;;10.30;;
4414;SDS011;2220;42.670;23.398;2023-08-24T02:44:38;14.55;;;11.07;;
4414;SDS011;2220;42.670;23.398;2023-08-24T02:47:04;15.52;;;11.35;;
4414;SDS011;2220;42.670;23.398;2023-08-24T02:49:30;30.17;;;17.05;;
4414;SDS011;2220;42.670;23.398;2023-08-24T02:51:55;30.23;;;16.83;;
4414;SDS011;2220;42.670;23.398;2023-08-24T02:54:20;15.18;;;11.95;;
4414;SDS011;2220;42.670;23.398;2023-08-24T02:56:46;13.57;;;10.35;;
4414;SDS011;2220;42.670;23.398;2023-08-24T02:59:11;19.80;;;12.48;;
4414;SDS011;2220;42.670;23.398;2023-08-24T03:01:37;14.95;;;11.02;;
4414;SDS011;2220;42.670;23.398;2023-08-24T03:04:03;13.38;;;10.52;;
4414;SDS011;2220;42.670;23.398;2023-08-24T03:06:30;31.40;;;21.15;;
4414;SDS011;2220;42.670;23.398;2023-08-24T03:08:55;17.27;;;14.00;;
4414;SDS011;2220;42.670;23.398;2023-08-24T03:11:21;15.23;;;11.43;;
4414;SDS011;2220;42.670;23.398;2023-08-24T03:13:46;15.32;;;11.98;;
4414;SDS011;2220;42.670;23.398;2023-08-24T03:16:12;19.27;;;13.70;;
4414;SDS011;2220;42.670;23.398;2023-08-24T03:18:37;15.23;;;11.43;;
4414;SDS011;2220;42.670;23.398;2023-08-24T03:21:03;44.65;;;27.75;;
4414;SDS011;2220;42.670;23.398;2023-08-24T03:23:28;20.00;;;14.00;;
4414;SDS011;2220;42.670;23.398;2023-08-24T03:25:54;15.25;;;13.65;;
4414;SDS011;2220;42.670;23.398;2023-08-24T03:28:20;24.48;;;15.80;;
4414;SDS011;2220;42.670;23.398;2023-08-24T03:30:47;15.82;;;14.10;;
4414;SDS011;2220;42.670;23.398;2023-08-24T03:33:14;16.80;;;13.50;;
4414;SDS011;2220;42.670;23.398;2023-08-24T03:35:40;17.35;;;15.35;;
4414;SDS011;2220;42.670;23.398;2023-08-24T03:38:06;27.60;;;14.45;;
4414;SDS011;2220;42.670;23.398;2023-08-24T03:40:31;19.85;;;13.57;;
4414;SDS011;2220;42.670;23.398;2023-08-24T03:42:57;19.33;;;14.40;;
4414;SDS011;2220;42.670;23.398;2023-08-24T03:45:22;18.67;;;13.90;;
4414;SDS011;2220;42.670;23.398;2023-08-24T03:47:48;17.85;;;12.10;;
4414;SDS011;2220;42.670;23.398;2023-08-24T03:50:14;23.42;;;13.63;;
4414;SDS011;2220;42.670;23.398;2023-08-24T03:52:40;17.83;;;14.00;;
4414;SDS011;2220;42.670;23.398;2023-08-24T03:55:06;21.40;;;14.13;;
4414;SDS011;2220;42.670;23.398;2023-08-24T03:57:32;23.38;;;15.52;;
4414;SDS011;2220;42.670;23.398;2023-08-24T03:59:58;32.38;;;24.65;;
4414;SDS011;2220;42.670;23.398;2023-08-24T04:02:23;32.80;;;25.38;;
4414;SDS011;2220;42.670;23.398;2023-08-24T04:04:50;20.73;;;15.88;;
4414;SDS011;2220;42.670;23.398;2023-08-24T04:07:16;19.92;;;13.50;;
4414;SDS011;2220;42.670;23.398;2023-08-24T04:09:41;21.00;;;13.52;;
4414;SDS011;2220;42.670;23.398;2023-08-24T04:12:07;18.20;;;14.60;;
4414;SDS011;2220;42.670;23.398;2023-08-24T04:14:33;22.42;;;13.02;;
4414;SDS011;2220;42.670;23.398;2023-08-24T04:16:58;18.95;;;13.45;;
4414;SDS011;2220;42.670;23.398;2023-08-24T04:19:23;17.73;;;14.15;;
4414;SDS011;2220;42.670;23.398;2023-08-24T04:21:49;15.70;;;12.70;;
4414;SDS011;2220;42.670;23.398;2023-08-24T04:24:14;21.33;;;14.02;;
4414;SDS011;2220;42.670;23.398;2023-08-24T04:26:40;24.95;;;18.38;;
4414;SDS011;2220;42.670;23.398;2023-08-24T04:29:05;30.05;;;20.48;;
4414;SDS011;2220;42.670;23.398;2023-08-24T04:31:31;21.13;;;14.88;;
4414;SDS011;2220;42.670;23.398;2023-08-24T04:33:56;19.38;;;13.75;;
4414;SDS011;2220;42.670;23.398;2023-08-24T04:36:21;17.67;;;12.85;;
4414;SDS011;2220;42.670;23.398;2023-08-24T04:38:47;25.70;;;14.13;;
4414;SDS011;2220;42.670;23.398;2023-08-24T04:41:12;21.60;;;13.05;;
4414;SDS011;2220;42.670;23.398;2023-08-24T04:43:38;22.88;;;14.00;;
4414;SDS011;2220;42.670;23.398;2023-08-24T04:46:03;21.50;;;14.00;;
4414;SDS011;2220;42.670;23.398;2023-08-24T04:48:29;27.58;;;14.10;;
4414;SDS011;2220;42.670;23.398;2023-08-24T04:51:01;28.00;;;14.38;;
4414;SDS011;2220;42.670;23.398;2023-08-24T04:53:29;19.23;;;13.77;;
4414;SDS011;2220;42.670;23.398;2023-08-24T04:55:55;26.25;;;14.32;;
4414;SDS011;2220;42.670;23.398;2023-08-24T04:58:21;19.85;;;13.52;;
4414;SDS011;2220;42.670;23.398;2023-08-24T05:00:47;18.60;;;14.77;;
4414;SDS011;2220;42.670;23.398;2023-08-24T05:03:13;19.33;;;13.50;;
4414;SDS011;2220;42.670;23.398;2023-08-24T05:05:39;25.65;;;14.98;;
4414;SDS011;2220;42.670;23.398;2023-08-24T05:08:05;16.17;;;12.55;;
4414;SDS011;2220;42.670;23.398;2023-08-24T05:10:32;21.75;;;12.27;;
4414;SDS011;2220;42.670;23.398;2023-08-24T05:12:59;18.92;;;11.30;;
4414;SDS011;2220;42.670;23.398;2023-08-24T05:15:25;17.35;;;11.60;;
4414;SDS011;2220;42.670;23.398;2023-08-24T05:17:51;19.65;;;13.30;;
4414;SDS011;2220;42.670;23.398;2023-08-24T05:20:25;17.27;;;12.77;;
4414;SDS011;2220;42.670;23.398;2023-08-24T05:22:51;14.40;;;11.68;;
4414;SDS011;2220;42.670;23.398;2023-08-24T05:25:16;13.10;;;10.40;;
4414;SDS011;2220;42.670;23.398;2023-08-24T05:27:43;17.27;;;10.48;;
4414;SDS011;2220;42.670;23.398;2023-08-24T05:30:09;21.02;;;10.35;;
4414;SDS011;2220;42.670;23.398;2023-08-24T05:32:35;14.25;;;10.43;;
4414;SDS011;2220;42.670;23.398;2023-08-24T05:35:04;14.75;;;10.85;;
4414;SDS011;2220;42.670;23.398;2023-08-24T05:37:33;25.63;;;15.68;;
4414;SDS011;2220;42.670;23.398;2023-08-24T05:40:00;24.38;;;15.88;;
4414;SDS011;2220;42.670;23.398;2023-08-24T05:42:26;24.48;;;14.90;;
4414;SDS011;2220;42.670;23.398;2023-08-24T05:44:52;33.20;;;15.80;;
4414;SDS011;2220;42.670;23.398;2023-08-24T05:47:17;30.95;;;15.27;;
4414;SDS011;2220;42.670;23.398;2023-08-24T05:49:43;27.88;;;15.32;;
4414;SDS011;2220;42.670;23.398;2023-08-24T05:52:08;24.90;;;15.98;;
4414;SDS011;2220;42.670;23.398;2023-08-24T05:54:35;26.38;;;17.73;;
4414;SDS011;2220;42.670;23.398;2023-08-24T05:57:02;31.83;;;18.63;;
4414;SDS011;2220;42.670;23.398;2023-08-24T05:59:28;32.38;;;20.27;;
4414;SDS011;2220;42.670;23.398;2023-08-24T06:01:54;31.83;;;18.60;;
4414;SDS011;2220;42.670;23.398;2023-08-24T06:04:20;36.90;;;20.42;;
4414;SDS011;2220;42.670;23.398;2023-08-24T06:06:52;31.00;;;18.67;;
4414;SDS011;2220;42.670;23.398;2023-08-24T06:09:17;33.20;;;19.17;;
4414;SDS011;2220;42.670;23.398;2023-08-24T06:11:43;38.38;;;19.45;;
4414;SDS011;2220;42.670;23.398;2023-08-24T06:14:08;43.25;;;18.90;;
4414;SDS011;2220;42.670;23.398;2023-08-24T06:16:34;32.67;;;17.98;;
4414;SDS011;2220;42.670;23.398;2023-08-24T06:18:59;35.40;;;17.27;;
4414;SDS011;2220;42.670;23.398;2023-08-24T06:21:24;31.48;;;18.60;;
4414;SDS011;2220;42.670;23.398;2023-08-24T06:23:50;29.40;;;17.48;;
4414;SDS011;2220;42.670;23.398;2023-08-24T06:26:16;36.00;;;16.45;;
4414;SDS011;2220;42.670;23.398;2023-08-24T06:28:42;22.25;;;15.95;;
4414;SDS011;2220;42.670;23.398;2023-08-24T06:31:08;29.73;;;17.52;;
4414;SDS011;2220;42.670;23.398;2023-08-24T06:33:33;30.42;;;15.10;;
4414;SDS011;2220;42.670;23.398;2023-08-24T06:35:59;32.28;;;16.90;;
4414;SDS011;2220;42.670;23.398;2023-08-24T06:38:27;31.02;;;17.30;;
4414;SDS011;2220;42.670;23.398;2023-08-24T06:40:53;26.48;;;15.98;;
4414;SDS011;2220;42.670;23.398;2023-08-24T06:43:19;32.88;;;16.88;;
4414;SDS011;2220;42.670;23.398;2023-08-24T06:45:44;24.23;;;16.65;;
4414;SDS011;2220;42.670;23.398;2023-08-24T06:48:10;29.88;;;18.27;;
4414;SDS011;2220;42.670;23.398;2023-08-24T06:50:35;39.05;;;16.27;;
4414;SDS011;2220;42.670;23.398;2023-08-24T06:53:02;26.70;;;16.45;;
4414;SDS011;2220;42.670;23.398;2023-08-24T06:55:31;24.48;;;16.42;;
4414;SDS011;2220;42.670;23.398;2023-08-24T06:57:56;34.92;;;20.08;;
4414;SDS011;2220;42.670;23.398;2023-08-24T07:00:22;33.17;;;17.58;;
4414;SDS011;2220;42.670;23.398;2023-08-24T07:02:48;25.10;;;16.38;;
4414;SDS011;2220;42.670;23.398;2023-08-24T07:05:16;29.35;;;16.17;;
4414;SDS011;2220;42.670;23.398;2023-08-24T07:07:44;31.73;;;17.52;;
4414;SDS011;2220;42.670;23.398;2023-08-24T07:10:13;27.52;;;16.52;;
4414;SDS011;2220;42.670;23.398;2023-08-24T07:12:38;27.38;;;18.05;;
4414;SDS011;2220;42.670;23.398;2023-08-24T07:15:10;28.23;;;17.92;;
4414;SDS011;2220;42.670;23.398;2023-08-24T07:17:36;28.42;;;18.60;;
4414;SDS011;2220;42.670;23.398;2023-08-24T07:20:02;34.47;;;18.55;;
4414;SDS011;2220;42.670;23.398;2023-08-24T07:22:30;25.58;;;18.38;;
4414;SDS011;2220;42.670;23.398;2023-08-24T07:24:55;32.47;;;18.05;;
4414;SDS011;2220;42.670;23.398;2023-08-24T07:27:21;30.10;;;20.58;;
4414;SDS011;2220;42.670;23.398;2023-08-24T07:29:46;29.42;;;19.63;;
4414;SDS011;2220;42.670;23.398;2023-08-24T07:32:12;31.17;;;21.20;;
4414;SDS011;2220;42.670;23.398;2023-08-24T07:34:38;30.25;;;19.63;;
4414;SDS011;2220;42.670;23.398;2023-08-24T07:37:03;36.70;;;19.20;;
4414;SDS011;2220;42.670;23.398;2023-08-24T07:39:29;29.40;;;18.65;;
4414;SDS011;2220;42.670;23.398;2023-08-24T07:41:54;34.72;;;20.02;;
4414;SDS011;2220;42.670;23.398;2023-08-24T07:44:20;29.02;;;18.83;;
4414;SDS011;2220;42.670;23.398;2023-08-24T07:46:46;27.35;;;19.33;;
4414;SDS011;2220;42.670;23.398;2023-08-24T07:49:12;31.83;;;18.80;;
4414;SDS011;2220;42.670;23.398;2023-08-24T07:51:38;28.05;;;19.05;;
4414;SDS011;2220;42.670;23.398;2023-08-24T07:54:03;32.03;;;18.52;;
4414;SDS011;2220;42.670;23.398;2023-08-24T07:56:29;26.13;;;18.60;;
4414;SDS011;2220;42.670;23.398;2023-08-24T07:58:55;25.90;;;17.30;;
4414;SDS011;2220;42.670;23.398;2023-08-24T08:01:20;39.40;;;17.65;;
4414;SDS011;2220;42.670;23.398;2023-08-24T08:03:46;26.13;;;17.35;;
4414;SDS011;2220;42.670;23.398;2023-08-24T08:06:11;27.45;;;17.30;;
4414;SDS011;2220;42.670;23.398;2023-08-24T08:08:38;30.48;;;17.70;;
4414;SDS011;2220;42.670;23.398;2023-08-24T08:11:04;22.50;;;15.18;;
4414;SDS011;2220;42.670;23.398;2023-08-24T08:13:29;28.13;;;17.35;;
4414;SDS011;2220;42.670;23.398;2023-08-24T08:16:02;28.50;;;16.85;;
4414;SDS011;2220;42.670;23.398;2023-08-24T08:18:29;22.55;;;16.00;;
4414;SDS011;2220;42.670;23.398;2023-08-24T08:20:54;20.40;;;15.35;;
4414;SDS011;2220;42.670;23.398;2023-08-24T08:23:20;22.45;;;15.95;;
4414;SDS011;2220;42.670;23.398;2023-08-24T08:25:45;26.33;;;15.65;;
4414;SDS011;2220;42.670;23.398;2023-08-24T08:28:11;26.13;;;15.90;;
4414;SDS011;2220;42.670;23.398;2023-08-24T08:30:36;33.25;;;15.95;;
4414;SDS011;2220;42.670;23.398;2023-08-24T08:33:02;22.20;;;14.68;;
4414;SDS011;2220;42.670;23.398;2023-08-24T08:35:27;22.10;;;14.63;;
4414;SDS011;2220;42.670;23.398;2023-08-24T08:37:53;22.52;;;14.90;;
4414;SDS011;2220;42.670;23.398;2023-08-24T08:40:19;17.90;;;12.52;;
4414;SDS011;2220;42.670;23.398;2023-08-24T08:42:45;25.50;;;14.40;;
4414;SDS011;2220;42.670;23.398;2023-08-24T08:45:11;25.45;;;12.32;;
4414;SDS011;2220;42.670;23.398;2023-08-24T08:47:37;21.10;;;11.93;;
4414;SDS011;2220;42.670;23.398;2023-08-24T08:50:03;24.15;;;12.75;;
4414;SDS011;2220;42.670;23.398;2023-08-24T08:52:30;31.85;;;12.73;;
4414;SDS011;2220;42.670;23.398;2023-08-24T08:54:56;21.75;;;11.82;;
4414;SDS011;2220;42.670;23.398;2023-08-24T08:57:22;20.38;;;13.05;;
4414;SDS011;2220;42.670;23.398;2023-08-24T08:59:50;20.25;;;11.43;;
4414;SDS011;2220;42.670;23.398;2023-08-24T09:02:17;20.27;;;11.90;;
4414;SDS011;2220;42.670;23.398;2023-08-24T09:04:45;19.95;;;12.52;;
4414;SDS011;2220;42.670;23.398;2023-08-24T09:07:12;18.90;;;12.45;;
4414;SDS011;2220;42.670;23.398;2023-08-24T09:09:38;21.70;;;12.23;;
4414;SDS011;2220;42.670;23.398;2023-08-24T09:12:07;17.35;;;12.07;;
4414;SDS011;2220;42.670;23.398;2023-08-24T09:14:33;20.58;;;11.90;;
4414;SDS011;2220;42.670;23.398;2023-08-24T09:16:59;27.45;;;12.35;;
4414;SDS011;2220;42.670;23.398;2023-08-24T09:19:28;17.10;;;11.60;;
4414;SDS011;2220;42.670;23.398;2023-08-24T09:21:58;19.60;;;12.60;;
4414;SDS011;2220;42.670;23.398;2023-08-24T09:24:31;19.85;;;12.70;;
4414;SDS011;2220;42.670;23.398;2023-08-24T09:26:58;17.38;;;11.23;;
4414;SDS011;2220;42.670;23.398;2023-08-24T09:29:24;15.20;;;11.38;;
4414;SDS011;2220;42.670;23.398;2023-08-24T09:31:50;12.98;;;10.38;;
4414;SDS011;2220;42.670;23.398;2023-08-24T09:34:19;17.52;;;11.07;;
4414;SDS011;2220;42.670;23.398;2023-08-24T09:36:46;22.67;;;12.00;;
4414;SDS011;2220;42.670;23.398;2023-08-24T09:39:11;13.45;;;10.70;;
4414;SDS011;2220;42.670;23.398;2023-08-24T09:41:41;20.35;;;10.57;;
4414;SDS011;2220;42.670;23.398;2023-08-24T09:44:09;17.95;;;11.63;;
4414;SDS011;2220;42.670;23.398;2023-08-24T09:46:35;17.95;;;10.50;;
4414;SDS011;2220;42.670;23.398;2023-08-24T09:49:04;21.80;;;11.82;;
4414;SDS011;2220;42.670;23.398;2023-08-24T09:51:30;17.13;;;11.48;;
4414;SDS011;2220;42.670;23.398;2023-08-24T09:53:58;16.75;;;11.10;;
4414;SDS011;2220;42.670;23.398;2023-08-24T09:56:26;19.10;;;11.07;;
4414;SDS011;2220;42.670;23.398;2023-08-24T09:58:54;13.25;;;11.13;;
4414;SDS011;2220;42.670;23.398;2023-08-24T10:01:22;15.55;;;10.75;;
4414;SDS011;2220;42.670;23.398;2023-08-24T10:03:50;25.20;;;11.23;;
4414;SDS011;2220;42.670;23.398;2023-08-24T10:06:20;22.10;;;10.98;;
4414;SDS011;2220;42.670;23.398;2023-08-24T10:08:50;23.30;;;10.38;;
4414;SDS011;2220;42.670;23.398;2023-08-24T10:11:19;11.73;;;10.35;;
4414;SDS011;2220;42.670;23.398;2023-08-24T10:16:32;17.52;;;9.90;;
4414;SDS011;2220;42.670;23.398;2023-08-24T10:19:00;17.52;;;9.35;;
4414;SDS011;2220;42.670;23.398;2023-08-24T10:21:28;13.90;;;9.45;;
4414;SDS011;2220;42.670;23.398;2023-08-24T10:23:54;13.88;;;10.00;;
4414;SDS011;2220;42.670;23.398;2023-08-24T10:26:25;10.73;;;9.32;;
4414;SDS011;2220;42.670;23.398;2023-08-24T10:28:51;16.63;;;9.98;;
4414;SDS011;2220;42.670;23.398;2023-08-24T10:31:17;12.60;;;9.52;;
4414;SDS011;2220;42.670;23.398;2023-08-24T10:33:44;14.38;;;9.75;;
4414;SDS011;2220;42.670;23.398;2023-08-24T10:36:14;11.20;;;9.73;;
4414;SDS011;2220;42.670;23.398;2023-08-24T10:38:41;13.70;;;9.75;;
4414;SDS011;2220;42.670;23.398;2023-08-24T10:41:07;9.98;;;9.07;;
4414;SDS011;2220;42.670;23.398;2023-08-24T10:43:34;10.73;;;9.35;;
4414;SDS011;2220;42.670;23.398;2023-08-24T10:46:00;11.70;;;8.20;;
4414;SDS011;2220;42.670;23.398;2023-08-24T10:48:29;15.02;;;9.70;;
4414;SDS011;2220;42.670;23.398;2023-08-24T10:53:55;17.08;;;9.60;;
4414;SDS011;2220;42.670;23.398;2023-08-24T10:56:24;13.20;;;10.07;;
4414;SDS011;2220;42.670;23.398;2023-08-24T10:59:10;12.95;;;10.10;;
4414;SDS011;2220;42.670;23.398;2023-08-24T11:01:40;12.50;;;9.95;;
4414;SDS011;2220;42.670;23.398;2023-08-24T11:04:19;15.10;;;10.48;;
4414;SDS011;2220;42.670;23.398;2023-08-24T11:06:54;16.65;;;10.43;;
4414;SDS011;2220;42.670;23.398;2023-08-24T11:09:22;15.20;;;11.02;;
4414;SDS011;2220;42.670;23.398;2023-08-24T11:11:58;11.45;;;10.07;;
4414;SDS011;2220;42.670;23.398;2023-08-24T11:14:25;15.75;;;9.48;;
4414;SDS011;2220;42.670;23.398;2023-08-24T11:16:51;15.07;;;9.98;;
4414;SDS011;2220;42.670;23.398;2023-08-24T11:19:22;16.88;;;9.95;;
4414;SDS011;2220;42.670;23.398;2023-08-24T11:21:48;20.33;;;13.07;;
4414;SDS011;2220;42.670;23.398;2023-08-24T11:24:16;14.65;;;10.43;;
4414;SDS011;2220;42.670;23.398;2023-08-24T11:26:48;15.45;;;10.23;;
4414;SDS011;2220;42.670;23.398;2023-08-24T11:29:14;14.13;;;10.57;;
4414;SDS011;2220;42.670;23.398;2023-08-24T11:31:43;19.33;;;10.10;;
4414;SDS011;2220;42.670;23.398;2023-08-24T11:34:09;15.35;;;11.07;;
4414;SDS011;2220;42.670;23.398;2023-08-24T11:37:09;14.20;;;10.65;;
4414;SDS011;2220;42.670;23.398;2023-08-24T11:39:27;19.38;;;10.52;;
4414;SDS011;2220;42.670;23.398;2023-08-24T11:42:05;16.90;;;10.30;;
4414;SDS011;2220;42.670;23.398;2023-08-24T11:44:46;16.45;;;11.55;;
4414;SDS011;2220;42.670;23.398;2023-08-24T11:47:12;19.27;;;10.90;;
4414;SDS011;2220;42.670;23.398;2023-08-24T11:49:38;14.02;;;10.43;;
4414;SDS011;2220;42.670;23.398;2023-08-24T11:52:04;14.13;;;10.10;;
4414;SDS011;2220;42.670;23.398;2023-08-24T11:54:32;14.48;;;10.52;;
4414;SDS011;2220;42.670;23.398;2023-08-24T11:56:58;23.45;;;10.85;;
4414;SDS011;2220;42.670;23.398;2023-08-24T11:59:23;16.88;;;10.30;;
4414;SDS011;2220;42.670;23.398;2023-08-24T12:01:50;14.90;;;9.40;;
4414;SDS011;2220;42.670;23.398;2023-08-24T12:04:17;12.88;;;9.10;;
4414;SDS011;2220;42.670;23.398;2023-08-24T12:06:43;14.68;;;9.70;;
4414;SDS011;2220;42.670;23.398;2023-08-24T12:09:09;13.40;;;10.60;;
4414;SDS011;2220;42.670;23.398;2023-08-24T12:11:35;15.80;;;9.10;;
4414;SDS011;2220;42.670;23.398;2023-08-24T12:14:02;17.42;;;9.98;;
4414;SDS011;2220;42.670;23.398;2023-08-24T12:16:30;28.58;;;10.85;;
4414;SDS011;2220;42.670;23.398;2023-08-24T12:18:57;12.65;;;10.07;;
4414;SDS011;2220;42.670;23.398;2023-08-24T12:21:28;11.68;;;9.90;;
4414;SDS011;2220;42.670;23.398;2023-08-24T12:26:27;9.95;;;8.23;;
4414;SDS011;2220;42.670;23.398;2023-08-24T12:28:59;16.75;;;8.40;;
4414;SDS011;2220;42.670;23.398;2023-08-24T12:31:26;11.80;;;9.40;;
4414;SDS011;2220;42.670;23.398;2023-08-24T12:34:03;10.00;;;9.02;;
4414;SDS011;2220;42.670;23.398;2023-08-24T12:36:36;14.77;;;9.23;;
4414;SDS011;2220;42.670;23.398;2023-08-24T12:39:03;18.42;;;10.52;;
4414;SDS011;2220;42.670;23.398;2023-08-24T12:41:29;20.80;;;10.35;;
4414;SDS011;2220;42.670;23.398;2023-08-24T12:43:55;11.98;;;9.68;;
4414;SDS011;2220;42.670;23.398;2023-08-24T12:46:21;14.13;;;10.63;;
4414;SDS011;2220;42.670;23.398;2023-08-24T12:48:46;13.38;;;9.45;;
4414;SDS011;2220;42.670;23.398;2023-08-24T12:51:12;20.02;;;10.45;;
4414;SDS011;2220;42.670;23.398;2023-08-24T12:53:37;14.93;;;8.98;;
4414;SDS011;2220;42.670;23.398;2023-08-24T12:56:03;16.42;;;8.77;;
4414;SDS011;2220;42.670;23.398;2023-08-24T12:58:29;16.10;;;9.40;;
4414;SDS011;2220;42.670;23.398;2023-08-24T13:00:54;25.77;;;9.63;;
4414;SDS011;2220;42.670;23.398;2023-08-24T13:03:20;21.25;;;9.35;;
4414;SDS011;2220;42.670;23.398;2023-08-24T13:05:45;11.63;;;8.07;;
4414;SDS011;2220;42.670;23.398;2023-08-24T13:08:12;16.23;;;8.80;;
4414;SDS011;2220;42.670;23.398;2023-08-24T13:10:38;21.92;;;8.90;;
4414;SDS011;2220;42.670;23.398;2023-08-24T13:13:04;16.20;;;8.88;;
4414;SDS011;2220;42.670;23.398;2023-08-24T13:15:29;12.50;;;7.80;;
4414;SDS011;2220;42.670;23.398;2023-08-24T13:17:55;9.13;;;8.10;;
4414;SDS011;2220;42.670;23.398;2023-08-24T13:20:21;11.55;;;8.50;;
4414;SDS011;2220;42.670;23.398;2023-08-24T13:22:47;17.30;;;8.80;;
4414;SDS011;2220;42.670;23.398;2023-08-24T13:25:12;18.98;;;8.25;;
4414;SDS011;2220;42.670;23.398;2023-08-24T13:27:37;14.15;;;8.15;;
4414;SDS011;2220;42.670;23.398;2023-08-24T13:30:03;17.77;;;8.23;;
4414;SDS011;2220;42.670;23.398;2023-08-24T13:32:29;13.35;;;8.25;;
4414;SDS011;2220;42.670;23.398;2023-08-24T13:34:54;11.88;;;9.02;;
4414;SDS011;2220;42.670;23.398;2023-08-24T13:37:22;14.50;;;9.00;;
4414;SDS011;2220;42.670;23.398;2023-08-24T13:39:48;18.02;;;8.50;;
4414;SDS011;2220;42.670;23.398;2023-08-24T13:42:15;18.40;;;9.00;;
4414;SDS011;2220;42.670;23.398;2023-08-24T13:44:40;14.40;;;8.63;;
4414;SDS011;2220;42.670;23.398;2023-08-24T13:47:05;15.68;;;10.13;;
4414;SDS011;2220;42.670;23.398;2023-08-24T13:49:31;13.73;;;10.00;;
4414;SDS011;2220;42.670;23.398;2023-08-24T13:51:56;19.45;;;9.20;;
4414;SDS011;2220;42.670;23.398;2023-08-24T13:54:22;13.07;;;9.30;;
4414;SDS011;2220;42.670;23.398;2023-08-24T13:56:48;18.70;;;9.23;;
4414;SDS011;2220;42.670;23.398;2023-08-24T13:59:14;14.98;;;9.80;;
4414;SDS011;2220;42.670;23.398;2023-08-24T14:01:40;10.68;;;9.40;;
4414;SDS011;2220;42.670;23.398;2023-08-24T14:04:07;17.83;;;10.55;;
4414;SDS011;2220;42.670;23.398;2023-08-24T14:06:33;15.82;;;9.25;;
4414;SDS011;2220;42.670;23.398;2023-08-24T14:09:02;10.90;;;9.80;;
4414;SDS011;2220;42.670;23.398;2023-08-24T14:11:28;14.10;;;9.93;;
4414;SDS011;2220;42.670;23.398;2023-08-24T14:13:54;18.35;;;9.27;;
4414;SDS011;2220;42.670;23.398;2023-08-24T14:16:19;13.70;;;10.15;;
4414;SDS011;2220;42.670;23.398;2023-08-24T14:18:45;19.52;;;10.50;;
4414;SDS011;2220;42.670;23.398;2023-08-24T14:21:11;14.05;;;9.48;;
4414;SDS011;2220;42.670;23.398;2023-08-24T14:23:37;20.67;;;9.40;;
4414;SDS011;2220;42.670;23.398;2023-08-24T14:26:03;10.82;;;8.75;;
4414;SDS011;2220;42.670;23.398;2023-08-24T14:28:46;12.73;;;9.95;;
4414;SDS011;2220;42.670;23.398;2023-08-24T14:31:14;16.95;;;10.23;;
4414;SDS011;2220;42.670;23.398;2023-08-24T14:33:42;14.32;;;9.55;;
4414;SDS011;2220;42.670;23.398;2023-08-24T14:36:07;9.80;;;8.68;;
4414;SDS011;2220;42.670;23.398;2023-08-24T14:38:33;17.58;;;9.88;;
4414;SDS011;2220;42.670;23.398;2023-08-24T14:40:58;16.70;;;9.45;;
4414;SDS011;2220;42.670;23.398;2023-08-24T14:43:26;14.10;;;9.18;;
4414;SDS011;2220;42.670;23.398;2023-08-24T14:45:53;14.18;;;10.30;;
4414;SDS011;2220;42.670;23.398;2023-08-24T14:48:19;14.73;;;9.35;;